createdAt,value
2018-03-22T00:00:05.277Z,1020.36
2018-03-22T00:01:05.363Z,1020.39
2018-03-22T00:02:05.235Z,1020.36
2018-03-22T00:03:05.381Z,1020.36
2018-03-22T00:04:05.159Z,1020.36
2018-03-22T00:05:05.292Z,1020.35
2018-03-22T00:06:05.100Z,1020.39
2018-03-22T00:07:05.203Z,1020.34
2018-03-22T00:08:05.041Z,1020.35
2018-03-22T00:09:05.114Z,1020.30
2018-03-22T00:10:04.981Z,1020.32
2018-03-22T00:11:05.128Z,1020.36
2018-03-22T00:12:04.922Z,1020.34
2018-03-22T00:13:05.042Z,1020.35
2018-03-22T00:14:04.865Z,1020.30
2018-03-22T00:15:04.951Z,1020.29
2018-03-22T00:16:04.808Z,1020.31
2018-03-22T00:17:04.965Z,1020.28
2018-03-22T00:18:04.753Z,1020.25
2018-03-22T00:19:04.876Z,1020.23
2018-03-22T00:20:04.686Z,1020.19
2018-03-22T00:21:04.789Z,1020.20
2018-03-22T00:22:04.629Z,1020.21
2018-03-22T00:23:04.804Z,1020.19
2018-03-22T00:24:04.570Z,1020.11
2018-03-22T00:25:04.720Z,1020.10
2018-03-22T00:26:04.511Z,1020.12
2018-03-22T00:27:04.622Z,1020.04
2018-03-22T00:28:04.455Z,1020.07
2018-03-22T00:29:04.641Z,1020.04
2018-03-22T00:30:04.394Z,1020.03
2018-03-22T00:31:04.449Z,1020.00
2018-03-22T00:32:04.339Z,1019.96
2018-03-22T00:33:04.464Z,1019.92
2018-03-22T00:34:04.280Z,1019.89
2018-03-22T00:35:04.373Z,1019.82
2018-03-22T00:36:04.216Z,1019.84
2018-03-22T00:37:04.387Z,1019.82
2018-03-22T00:38:04.158Z,1019.80
2018-03-22T00:39:04.188Z,1019.83
2018-03-22T00:40:04.098Z,1019.76
2018-03-22T00:41:04.108Z,1019.73
2018-03-22T00:42:04.039Z,1019.73
2018-03-22T00:43:04.123Z,1019.71
2018-03-22T00:44:03.982Z,1019.65
2018-03-22T00:45:04.038Z,1019.70
2018-03-22T00:46:03.926Z,1019.64
2018-03-22T00:47:03.946Z,1019.60
2018-03-22T00:48:03.870Z,1019.58
2018-03-22T00:49:03.961Z,1019.52
2018-03-22T00:50:03.812Z,1019.48
2018-03-22T00:51:03.872Z,1019.57
2018-03-22T00:52:03.747Z,1019.52
2018-03-22T00:53:03.784Z,1019.52
2018-03-22T00:54:03.686Z,1019.45
2018-03-22T00:55:03.697Z,1019.46
2018-03-22T00:56:03.631Z,1019.42
2018-03-22T00:57:03.713Z,1019.38
2018-03-22T00:58:03.570Z,1019.39
2018-03-22T00:59:03.622Z,1019.37
2018-03-22T01:00:03.511Z,1019.36
2018-03-22T01:01:03.529Z,1019.34
2018-03-22T01:02:03.449Z,1019.32
2018-03-22T01:03:03.542Z,1019.34
2018-03-22T01:04:03.397Z,1019.30
2018-03-22T01:05:03.460Z,1019.29
2018-03-22T01:06:03.337Z,1019.26
2018-03-22T01:07:03.367Z,1019.23
2018-03-22T01:08:03.278Z,1019.18
2018-03-22T01:09:03.383Z,1019.16
2018-03-22T01:10:03.215Z,1019.10
2018-03-22T01:11:03.297Z,1019.09
2018-03-22T01:12:03.158Z,1019.02
2018-03-22T01:13:03.217Z,1019.04
2018-03-22T01:14:03.100Z,1018.93
2018-03-22T01:15:03.120Z,1018.94
2018-03-22T01:16:03.043Z,1018.86
2018-03-22T01:17:03.136Z,1018.88
2018-03-22T01:18:02.982Z,1018.89
2018-03-22T01:19:03.046Z,1018.93
2018-03-22T01:20:02.925Z,1018.91
2018-03-22T01:21:02.963Z,1018.88
2018-03-22T01:22:02.868Z,1018.83
2018-03-22T01:23:02.972Z,1018.82
2018-03-22T01:24:02.808Z,1018.78
2018-03-22T01:25:02.876Z,1018.77
2018-03-22T01:26:02.748Z,1018.77
2018-03-22T01:27:02.794Z,1018.83
2018-03-22T01:28:02.698Z,1018.82
2018-03-22T01:29:02.807Z,1018.77
2018-03-22T01:30:02.635Z,1018.74
2018-03-22T01:31:02.722Z,1018.75
2018-03-22T01:32:02.575Z,1018.68
2018-03-22T01:33:02.634Z,1018.71
2018-03-22T01:34:02.515Z,1018.69
2018-03-22T01:35:02.650Z,1018.71
2018-03-22T01:36:02.462Z,1018.68
2018-03-22T01:37:02.556Z,1018.68
2018-03-22T01:38:02.397Z,1018.68
2018-03-22T01:39:02.467Z,1018.72
2018-03-22T01:40:02.342Z,1018.68
2018-03-22T01:41:02.380Z,1018.67
2018-03-22T01:42:02.281Z,1018.62
2018-03-22T01:43:02.396Z,1018.60
2018-03-22T01:44:02.223Z,1018.59
2018-03-22T01:45:02.310Z,1018.58
2018-03-22T01:46:02.161Z,1018.53
2018-03-22T01:47:02.220Z,1018.50
2018-03-22T01:48:02.105Z,1018.49
2018-03-22T01:49:02.231Z,1018.46
2018-03-22T01:50:02.048Z,1018.40
2018-03-22T01:51:02.149Z,1018.37
2018-03-22T01:52:01.992Z,1018.39
2018-03-22T01:53:02.056Z,1018.34
2018-03-22T01:54:01.933Z,1018.32
2018-03-22T01:55:02.070Z,1018.25
2018-03-22T01:56:01.871Z,1018.27
2018-03-22T01:57:01.980Z,1018.27
2018-03-22T01:58:01.817Z,1018.22
2018-03-22T01:59:01.893Z,1018.25
2018-03-22T02:00:01.753Z,1018.19
2018-03-22T02:01:01.907Z,1018.19
2018-03-22T02:02:01.695Z,1018.16
2018-03-22T02:03:01.830Z,1018.15
2018-03-22T02:04:01.639Z,1018.15
2018-03-22T02:05:01.733Z,1018.18
2018-03-22T02:06:01.577Z,1018.11
2018-03-22T02:07:01.641Z,1018.09
2018-03-22T02:08:01.522Z,1018.06
2018-03-22T02:09:01.656Z,1018.01
2018-03-22T02:10:01.465Z,1018.07
2018-03-22T02:11:01.567Z,1018.09
2018-03-22T02:12:01.407Z,1018.12
2018-03-22T02:13:01.479Z,1018.15
2018-03-22T02:14:01.344Z,1018.17
2018-03-22T02:15:01.502Z,1018.06
2018-03-22T02:16:01.285Z,1018.06
2018-03-22T02:17:01.409Z,1017.96
2018-03-22T02:18:01.228Z,1017.95
2018-03-22T02:19:01.318Z,1017.95
2018-03-22T02:20:01.174Z,1017.96
2018-03-22T02:21:01.333Z,1017.82
2018-03-22T02:22:01.108Z,1017.85
2018-03-22T02:23:01.242Z,1017.80
2018-03-22T02:24:01.054Z,1017.83
2018-03-22T02:25:01.155Z,1017.77
2018-03-22T02:26:00.995Z,1017.80
2018-03-22T02:27:01.168Z,1017.78
2018-03-22T02:28:00.936Z,1017.75
2018-03-22T02:29:01.079Z,1017.79
2018-03-22T02:30:00.881Z,1017.77
2018-03-22T02:31:00.991Z,1017.77
2018-03-22T02:32:00.819Z,1017.79
2018-03-22T02:33:00.904Z,1017.84
2018-03-22T02:34:00.770Z,1017.77
2018-03-22T02:35:00.917Z,1017.81
2018-03-22T02:36:00.701Z,1017.79
2018-03-22T02:37:00.828Z,1017.87
2018-03-22T02:38:00.645Z,1017.93
2018-03-22T02:39:00.739Z,1017.77
2018-03-22T02:40:00.587Z,1017.79
2018-03-22T02:41:00.753Z,1017.78
2018-03-22T02:42:00.528Z,1017.81
2018-03-22T02:43:01.689Z,1017.76
2018-03-22T02:44:00.477Z,1017.67
2018-03-22T02:45:00.578Z,1017.65
2018-03-22T02:46:00.413Z,1017.59
2018-03-22T02:47:00.591Z,1017.60
2018-03-22T02:48:00.352Z,1017.57
2018-03-22T02:49:00.504Z,1017.49
2018-03-22T02:50:00.297Z,1017.49
2018-03-22T02:51:00.412Z,1017.48
2018-03-22T02:52:00.244Z,1017.50
2018-03-22T02:53:00.433Z,1017.43
2018-03-22T02:54:00.182Z,1017.46
2018-03-22T02:55:00.237Z,1017.42
2018-03-22T02:56:00.117Z,1017.39
2018-03-22T02:57:00.161Z,1017.41
2018-03-22T02:58:00.073Z,1017.37
2018-03-22T02:59:00.061Z,1017.39
2018-03-22T03:00:00.003Z,1017.36
2018-03-22T03:01:00.071Z,1017.33
2018-03-22T03:01:59.956Z,1017.32
2018-03-22T03:02:59.986Z,1017.26
2018-03-22T03:03:59.888Z,1017.24
2018-03-22T03:04:59.890Z,1017.19
2018-03-22T03:05:59.832Z,1017.18
2018-03-22T03:06:59.913Z,1017.21
2018-03-22T03:07:59.770Z,1017.21
2018-03-22T03:08:59.824Z,1017.13
2018-03-22T03:09:59.714Z,1017.12
2018-03-22T03:10:59.732Z,1017.06
2018-03-22T03:11:59.660Z,1017.13
2018-03-22T03:12:59.751Z,1017.09
2018-03-22T03:13:59.597Z,1017.10
2018-03-22T03:14:59.660Z,1017.05
2018-03-22T03:15:59.539Z,1017.03
2018-03-22T03:16:59.566Z,1016.98
2018-03-22T03:17:59.486Z,1016.99
2018-03-22T03:18:59.585Z,1016.97
2018-03-22T03:19:59.423Z,1016.90
2018-03-22T03:20:59.495Z,1016.92
2018-03-22T03:21:59.367Z,1016.92
2018-03-22T03:22:59.406Z,1016.87
2018-03-22T03:23:59.319Z,1016.89
2018-03-22T03:24:59.420Z,1016.82
2018-03-22T03:25:59.255Z,1016.81
2018-03-22T03:26:59.332Z,1016.78
2018-03-22T03:27:59.204Z,1016.77
2018-03-22T03:28:59.253Z,1016.72
2018-03-22T03:29:59.131Z,1016.70
2018-03-22T03:30:59.144Z,1016.69
2018-03-22T03:31:59.077Z,1016.64
2018-03-22T03:32:59.167Z,1016.57
2018-03-22T03:33:59.016Z,1016.51
2018-03-22T03:34:59.085Z,1016.49
2018-03-22T03:35:58.954Z,1016.46
2018-03-22T03:36:58.996Z,1016.42
2018-03-22T03:37:58.901Z,1016.41
2018-03-22T03:38:59.009Z,1016.37
2018-03-22T03:39:58.841Z,1016.43
2018-03-22T03:40:58.921Z,1016.45
2018-03-22T03:41:58.789Z,1016.41
2018-03-22T03:42:58.833Z,1016.35
2018-03-22T03:43:58.753Z,1016.39
2018-03-22T03:44:58.848Z,1016.46
2018-03-22T03:45:58.669Z,1016.35
2018-03-22T03:46:58.756Z,1016.47
2018-03-22T03:47:58.610Z,1016.52
2018-03-22T03:48:58.682Z,1016.50
2018-03-22T03:49:58.552Z,1016.47
2018-03-22T03:50:58.683Z,1016.46
2018-03-22T03:51:58.492Z,1016.46
2018-03-22T03:52:58.602Z,1016.42
2018-03-22T03:53:58.440Z,1016.45
2018-03-22T03:54:58.507Z,1016.44
2018-03-22T03:55:58.382Z,1016.45
2018-03-22T03:56:58.420Z,1016.43
2018-03-22T03:57:58.321Z,1016.42
2018-03-22T03:58:58.435Z,1016.53
2018-03-22T03:59:58.262Z,1016.53
2018-03-22T04:00:58.354Z,1016.51
2018-03-22T04:01:58.203Z,1016.48
2018-03-22T04:02:58.256Z,1016.50
2018-03-22T04:03:58.144Z,1016.48
2018-03-22T04:04:58.270Z,1016.46
2018-03-22T04:05:58.097Z,1016.40
2018-03-22T04:06:58.180Z,1016.33
2018-03-22T04:07:58.036Z,1016.30
2018-03-22T04:08:58.091Z,1016.32
2018-03-22T04:09:57.973Z,1016.27
2018-03-22T04:10:58.107Z,1016.25
2018-03-22T04:11:57.917Z,1016.20
2018-03-22T04:12:58.020Z,1016.19
2018-03-22T04:13:57.862Z,1016.17
2018-03-22T04:14:57.925Z,1016.21
2018-03-22T04:15:57.795Z,1016.12
2018-03-22T04:16:57.947Z,1016.14
2018-03-22T04:17:57.741Z,1016.10
2018-03-22T04:18:57.852Z,1016.03
2018-03-22T04:19:57.679Z,1015.95
2018-03-22T04:20:57.766Z,1015.93
2018-03-22T04:21:57.620Z,1015.86
2018-03-22T04:22:57.778Z,1015.89
2018-03-22T04:23:57.562Z,1015.86
2018-03-22T04:24:57.689Z,1015.86
2018-03-22T04:25:57.507Z,1015.89
2018-03-22T04:26:57.600Z,1015.85
2018-03-22T04:27:57.445Z,1015.82
2018-03-22T04:28:57.511Z,1015.80
2018-03-22T04:29:57.388Z,1015.76
2018-03-22T04:30:57.525Z,1015.79
2018-03-22T04:31:57.330Z,1015.77
2018-03-22T04:32:57.443Z,1015.75
2018-03-22T04:33:57.271Z,1015.78
2018-03-22T04:34:57.348Z,1015.66
2018-03-22T04:35:57.215Z,1015.67
2018-03-22T04:36:57.362Z,1015.68
2018-03-22T04:37:57.160Z,1015.61
2018-03-22T04:38:57.274Z,1015.65
2018-03-22T04:39:57.096Z,1015.71
2018-03-22T04:40:57.186Z,1015.66
2018-03-22T04:41:57.037Z,1015.63
2018-03-22T04:42:57.201Z,1015.63
2018-03-22T04:43:56.983Z,1015.65
2018-03-22T04:44:57.116Z,1015.65
2018-03-22T04:45:56.925Z,1015.62
2018-03-22T04:46:57.022Z,1015.58
2018-03-22T04:47:56.863Z,1015.56
2018-03-22T04:48:57.036Z,1015.53
2018-03-22T04:49:56.805Z,1015.46
2018-03-22T04:50:56.948Z,1015.58
2018-03-22T04:51:56.748Z,1015.50
2018-03-22T04:52:56.859Z,1015.50
2018-03-22T04:53:56.694Z,1015.52
2018-03-22T04:54:56.773Z,1015.48
2018-03-22T04:55:56.631Z,1015.43
2018-03-22T04:56:56.785Z,1015.41
2018-03-22T04:57:56.575Z,1015.46
2018-03-22T04:58:56.699Z,1015.37
2018-03-22T04:59:56.515Z,1015.39
2018-03-22T05:00:56.609Z,1015.34
2018-03-22T05:01:56.452Z,1015.36
2018-03-22T05:02:56.625Z,1015.41
2018-03-22T05:03:56.401Z,1015.44
2018-03-22T05:04:56.534Z,1015.36
2018-03-22T05:05:56.339Z,1015.41
2018-03-22T05:06:56.455Z,1015.34
2018-03-22T05:07:56.283Z,1015.42
2018-03-22T05:08:56.470Z,1015.42
2018-03-22T05:09:56.223Z,1015.35
2018-03-22T05:10:56.269Z,1015.28
2018-03-22T05:11:56.167Z,1015.29
2018-03-22T05:12:56.199Z,1015.32
2018-03-22T05:13:56.107Z,1015.32
2018-03-22T05:14:56.196Z,1015.33
2018-03-22T05:15:56.052Z,1015.29
2018-03-22T05:16:56.112Z,1015.26
2018-03-22T05:17:55.990Z,1015.24
2018-03-22T05:18:56.017Z,1015.22
2018-03-22T05:19:55.934Z,1015.24
2018-03-22T05:20:56.033Z,1015.19
2018-03-22T05:21:55.873Z,1015.22
2018-03-22T05:22:55.950Z,1015.26
2018-03-22T05:23:55.816Z,1015.20
2018-03-22T05:24:55.859Z,1015.10
2018-03-22T05:25:55.761Z,1015.10
2018-03-22T05:26:55.766Z,1015.10
2018-03-22T05:27:55.705Z,1015.05
2018-03-22T05:28:55.779Z,1015.00
2018-03-22T05:29:55.644Z,1014.98
2018-03-22T05:30:55.697Z,1014.94
2018-03-22T05:31:55.588Z,1014.94
2018-03-22T05:32:55.603Z,1014.94
2018-03-22T05:33:55.527Z,1014.93
2018-03-22T05:34:55.618Z,1014.88
2018-03-22T05:35:55.468Z,1014.87
2018-03-22T05:36:55.532Z,1014.91
2018-03-22T05:37:55.410Z,1014.85
2018-03-22T05:38:55.440Z,1014.83
2018-03-22T05:39:55.368Z,1014.80
2018-03-22T05:40:55.455Z,1014.78
2018-03-22T05:41:55.295Z,1014.82
2018-03-22T05:42:55.367Z,1014.79
2018-03-22T05:43:55.266Z,1014.82
2018-03-22T05:44:55.279Z,1014.95
2018-03-22T05:45:55.190Z,1014.91
2018-03-22T05:46:55.292Z,1014.90
2018-03-22T05:47:55.121Z,1014.91
2018-03-22T05:48:55.203Z,1014.99
2018-03-22T05:49:55.063Z,1014.93
2018-03-22T05:50:55.115Z,1014.92
2018-03-22T05:51:55.004Z,1014.89
2018-03-22T05:52:55.027Z,1014.88
2018-03-22T05:53:54.944Z,1014.86
2018-03-22T05:54:55.040Z,1014.90
2018-03-22T05:55:54.888Z,1014.93
2018-03-22T05:56:54.952Z,1014.89
2018-03-22T05:57:54.827Z,1014.92
2018-03-22T05:58:54.879Z,1014.92
2018-03-22T05:59:54.771Z,1014.93
2018-03-22T06:00:54.876Z,1014.87
2018-03-22T06:01:54.714Z,1014.95
2018-03-22T06:02:54.790Z,1014.91
2018-03-22T06:03:54.664Z,1014.91
2018-03-22T06:04:54.699Z,1014.95
2018-03-22T06:05:54.591Z,1014.93
2018-03-22T06:06:54.716Z,1014.91
2018-03-22T06:07:54.545Z,1014.97
2018-03-22T06:08:54.625Z,1014.93
2018-03-22T06:09:54.483Z,1014.97
2018-03-22T06:10:54.544Z,1015.01
2018-03-22T06:11:54.419Z,1014.94
2018-03-22T06:12:54.552Z,1014.94
2018-03-22T06:13:54.362Z,1014.97
2018-03-22T06:14:54.466Z,1014.88
2018-03-22T06:15:54.301Z,1014.91
2018-03-22T06:16:54.375Z,1014.83
2018-03-22T06:17:54.244Z,1014.80
2018-03-22T06:18:54.299Z,1014.78
2018-03-22T06:19:54.192Z,1014.75
2018-03-22T06:20:54.301Z,1014.74
2018-03-22T06:21:54.132Z,1014.70
2018-03-22T06:22:54.210Z,1014.74
2018-03-22T06:23:54.068Z,1014.73
2018-03-22T06:24:54.125Z,1014.73
2018-03-22T06:25:54.015Z,1014.78
2018-03-22T06:26:54.138Z,1014.72
2018-03-22T06:27:53.946Z,1014.74
2018-03-22T06:28:54.054Z,1014.74
2018-03-22T06:29:53.890Z,1014.77
2018-03-22T06:30:53.961Z,1014.73
2018-03-22T06:31:53.832Z,1014.69
2018-03-22T06:32:54.020Z,1014.71
2018-03-22T06:33:53.775Z,1014.70
2018-03-22T06:34:53.896Z,1014.72
2018-03-22T06:35:53.715Z,1014.69
2018-03-22T06:36:53.799Z,1014.67
2018-03-22T06:37:53.654Z,1014.71
2018-03-22T06:38:53.812Z,1014.76
2018-03-22T06:39:53.600Z,1014.69
2018-03-22T06:40:53.723Z,1014.69
2018-03-22T06:41:53.535Z,1014.64
2018-03-22T06:42:53.644Z,1014.64
2018-03-22T06:43:53.478Z,1014.59
2018-03-22T06:44:53.547Z,1014.49
2018-03-22T06:45:53.427Z,1014.49
2018-03-22T06:46:53.562Z,1014.52
2018-03-22T06:47:53.357Z,1014.39
2018-03-22T06:48:53.479Z,1014.41
2018-03-22T06:49:53.301Z,1014.37
2018-03-22T06:50:53.384Z,1014.38
2018-03-22T06:51:53.243Z,1014.31
2018-03-22T06:52:53.397Z,1014.43
2018-03-22T06:53:53.186Z,1014.28
2018-03-22T06:54:53.311Z,1014.28
2018-03-22T06:55:53.130Z,1014.31
2018-03-22T06:56:53.291Z,1014.33
2018-03-22T06:57:53.064Z,1014.30
2018-03-22T06:58:53.240Z,1014.28
2018-03-22T06:59:53.008Z,1014.27
2018-03-22T07:00:53.152Z,1014.31
2018-03-22T07:01:52.954Z,1014.26
2018-03-22T07:02:53.060Z,1014.30
2018-03-22T07:03:52.888Z,1014.31
2018-03-22T07:04:52.973Z,1014.34
2018-03-22T07:05:52.827Z,1014.23
2018-03-22T07:06:53.032Z,1014.23
2018-03-22T07:07:52.775Z,1014.18
2018-03-22T07:08:52.897Z,1014.13
2018-03-22T07:09:52.712Z,1014.08
2018-03-22T07:10:52.810Z,1014.07
2018-03-22T07:11:52.654Z,1014.17
2018-03-22T07:12:52.823Z,1014.13
2018-03-22T07:13:52.595Z,1014.13
2018-03-22T07:14:52.737Z,1014.01
2018-03-22T07:15:52.539Z,1014.07
2018-03-22T07:16:52.649Z,1014.00
2018-03-22T07:17:52.475Z,1014.04
2018-03-22T07:18:52.663Z,1014.05
2018-03-22T07:19:52.452Z,1014.09
2018-03-22T07:20:52.573Z,1013.99
2018-03-22T07:21:52.359Z,1014.02
2018-03-22T07:22:52.483Z,1014.01
2018-03-22T07:23:52.297Z,1014.04
2018-03-22T07:24:52.396Z,1014.03
2018-03-22T07:25:52.245Z,1013.96
2018-03-22T07:26:52.416Z,1013.95
2018-03-22T07:27:52.179Z,1013.92
2018-03-22T07:28:52.222Z,1013.90
2018-03-22T07:29:52.122Z,1013.94
2018-03-22T07:30:52.130Z,1013.89
2018-03-22T07:31:52.062Z,1013.82
2018-03-22T07:32:52.131Z,1013.83
2018-03-22T07:33:52.003Z,1013.78
2018-03-22T07:34:52.055Z,1013.76
2018-03-22T07:35:51.944Z,1013.79
2018-03-22T07:36:51.986Z,1013.79
2018-03-22T07:37:51.889Z,1013.80
2018-03-22T07:38:51.980Z,1013.76
2018-03-22T07:39:51.827Z,1013.76
2018-03-22T07:40:51.893Z,1013.77
2018-03-22T07:41:51.769Z,1013.77
2018-03-22T07:42:51.808Z,1013.78
2018-03-22T07:43:51.709Z,1013.71
2018-03-22T07:44:51.757Z,1013.72
2018-03-22T07:45:51.649Z,1013.68
2018-03-22T07:46:51.728Z,1013.69
2018-03-22T07:47:51.592Z,1013.71
2018-03-22T07:48:51.644Z,1013.70
2018-03-22T07:49:51.531Z,1013.66
2018-03-22T07:50:51.561Z,1013.67
2018-03-22T07:51:51.483Z,1013.66
2018-03-22T07:52:51.564Z,1013.71
2018-03-22T07:53:51.414Z,1013.65
2018-03-22T07:54:51.482Z,1013.64
2018-03-22T07:55:51.359Z,1013.60
2018-03-22T07:56:51.394Z,1013.52
2018-03-22T07:57:51.293Z,1013.55
2018-03-22T07:58:51.406Z,1013.57
2018-03-22T07:59:51.235Z,1013.59
2018-03-22T08:00:51.316Z,1013.55
2018-03-22T08:01:51.175Z,1013.58
2018-03-22T08:02:51.229Z,1013.63
2018-03-22T08:03:51.137Z,1013.60
2018-03-22T08:04:51.149Z,1013.57
2018-03-22T08:05:51.118Z,1013.61
2018-03-22T08:06:51.145Z,1013.59
2018-03-22T08:07:51.004Z,1013.67
2018-03-22T08:08:51.065Z,1013.63
2018-03-22T08:09:50.950Z,1013.61
2018-03-22T08:10:50.978Z,1013.66
2018-03-22T08:11:50.883Z,1013.60
2018-03-22T08:12:50.989Z,1013.62
2018-03-22T08:13:50.823Z,1013.57
2018-03-22T08:14:50.900Z,1013.57
2018-03-22T08:15:50.776Z,1013.55
2018-03-22T08:16:50.811Z,1013.51
2018-03-22T08:17:50.728Z,1013.46
2018-03-22T08:18:50.787Z,1013.45
2018-03-22T08:19:50.647Z,1013.38
2018-03-22T08:20:50.743Z,1013.43
2018-03-22T08:21:50.590Z,1013.36
2018-03-22T08:22:50.656Z,1013.43
2018-03-22T08:23:50.526Z,1013.48
2018-03-22T08:24:50.561Z,1013.42
2018-03-22T08:25:50.470Z,1013.45
2018-03-22T08:26:50.573Z,1013.38
2018-03-22T08:27:50.412Z,1013.37
2018-03-22T08:28:50.385Z,1013.37
2018-03-22T08:29:50.356Z,1013.41
2018-03-22T08:30:50.397Z,1013.43
2018-03-22T08:31:50.324Z,1013.42
2018-03-22T08:32:50.417Z,1013.39
2018-03-22T08:33:50.257Z,1013.44
2018-03-22T08:34:50.202Z,1013.44
2018-03-22T08:35:50.185Z,1013.42
2018-03-22T08:36:50.233Z,1013.39
2018-03-22T08:37:50.117Z,1013.41
2018-03-22T08:38:50.245Z,1013.36
2018-03-22T08:39:50.060Z,1013.34
2018-03-22T08:40:50.158Z,1013.36
2018-03-22T08:41:50.002Z,1013.32
2018-03-22T08:42:50.076Z,1013.32
2018-03-22T08:43:49.942Z,1013.24
2018-03-22T08:44:50.083Z,1013.25
2018-03-22T08:45:49.890Z,1013.24
2018-03-22T08:46:49.993Z,1013.25
2018-03-22T08:47:50.001Z,1013.25
2018-03-22T08:48:49.801Z,1013.29
2018-03-22T08:49:49.925Z,1013.25
2018-03-22T08:50:49.732Z,1013.16
2018-03-22T08:51:49.732Z,1013.19
2018-03-22T08:52:49.677Z,1013.22
2018-03-22T08:53:49.738Z,1013.17
2018-03-22T08:54:49.676Z,1013.12
2018-03-22T08:55:49.758Z,1013.27
2018-03-22T08:56:49.567Z,1013.07
2018-03-22T08:57:49.665Z,1013.05
2018-03-22T08:58:49.539Z,1013.11
2018-03-22T08:59:49.572Z,1013.05
2018-03-22T09:00:49.446Z,1012.99
2018-03-22T09:01:49.486Z,1012.99
2018-03-22T09:02:49.386Z,1013.01
2018-03-22T09:03:49.399Z,1013.01
2018-03-22T09:04:49.329Z,1012.95
2018-03-22T09:05:49.413Z,1012.87
2018-03-22T09:06:49.273Z,1012.94
2018-03-22T09:07:49.427Z,1012.93
2018-03-22T09:08:49.212Z,1012.88
2018-03-22T09:09:49.213Z,1012.87
2018-03-22T09:10:49.204Z,1012.94
2018-03-22T09:11:49.249Z,1012.84
2018-03-22T09:12:49.099Z,1013.00
2018-03-22T09:13:49.262Z,1012.82
2018-03-22T09:14:49.036Z,1012.88
2018-03-22T09:15:49.023Z,1012.83
2018-03-22T09:16:48.993Z,1012.82
2018-03-22T09:17:48.951Z,1012.80
2018-03-22T09:18:49.005Z,1012.86
2018-03-22T09:19:48.893Z,1012.84
2018-03-22T09:20:48.863Z,1012.84
2018-03-22T09:21:48.921Z,1012.81
2018-03-22T09:22:48.807Z,1012.84
2018-03-22T09:23:48.834Z,1012.81
2018-03-22T09:24:48.770Z,1012.74
2018-03-22T09:25:48.742Z,1012.75
2018-03-22T09:26:48.691Z,1012.78
2018-03-22T09:27:48.757Z,1012.80
2018-03-22T09:28:48.631Z,1012.72
2018-03-22T09:29:48.665Z,1012.77
2018-03-22T09:30:48.574Z,1012.69
2018-03-22T09:31:48.573Z,1012.80
2018-03-22T09:32:48.518Z,1012.69
2018-03-22T09:33:48.587Z,1012.68
2018-03-22T09:34:48.480Z,1012.67
2018-03-22T09:35:48.496Z,1012.72
2018-03-22T09:36:48.403Z,1012.68
2018-03-22T09:37:48.406Z,1012.66
2018-03-22T09:38:48.340Z,1012.70
2018-03-22T09:39:48.418Z,1012.73
2018-03-22T09:40:48.285Z,1012.75
2018-03-22T09:41:48.364Z,1012.70
2018-03-22T09:42:48.225Z,1012.71
2018-03-22T09:43:48.239Z,1012.70
2018-03-22T09:44:48.172Z,1012.73
2018-03-22T09:45:48.259Z,1012.76
2018-03-22T09:46:48.117Z,1012.80
2018-03-22T09:47:48.164Z,1012.78
2018-03-22T09:48:48.061Z,1012.74
2018-03-22T09:49:48.072Z,1012.77
2018-03-22T09:50:48.009Z,1012.82
2018-03-22T09:51:47.985Z,1012.80
2018-03-22T09:52:47.936Z,1012.79
2018-03-22T09:53:47.997Z,1012.77
2018-03-22T09:54:47.881Z,1012.74
2018-03-22T09:55:47.906Z,1012.61
2018-03-22T09:56:47.826Z,1012.70
2018-03-22T09:57:47.816Z,1012.72
2018-03-22T09:58:47.768Z,1012.67
2018-03-22T09:59:47.827Z,1012.70
2018-03-22T10:00:47.710Z,1012.70
2018-03-22T10:01:47.740Z,1012.70
2018-03-22T10:02:47.658Z,1012.77
2018-03-22T10:03:47.650Z,1012.73
2018-03-22T10:04:47.594Z,1012.73
2018-03-22T10:05:47.664Z,1012.69
2018-03-22T10:06:47.568Z,1012.75
2018-03-22T10:07:47.510Z,1012.76
2018-03-22T10:08:47.580Z,1012.71
2018-03-22T10:09:47.449Z,1012.74
2018-03-22T10:10:47.492Z,1012.75
2018-03-22T10:11:47.397Z,1012.67
2018-03-22T10:12:47.402Z,1012.67
2018-03-22T10:13:47.338Z,1012.66
2018-03-22T10:14:47.419Z,1012.68
2018-03-22T10:15:47.287Z,1012.71
2018-03-22T10:16:47.320Z,1012.65
2018-03-22T10:17:47.226Z,1012.68
2018-03-22T10:18:47.230Z,1012.62
2018-03-22T10:19:47.181Z,1012.66
2018-03-22T10:20:47.242Z,1012.67
2018-03-22T10:21:47.113Z,1012.67
2018-03-22T10:22:47.090Z,1012.63
2018-03-22T10:23:47.083Z,1012.66
2018-03-22T10:24:47.033Z,1012.64
2018-03-22T10:25:46.998Z,1012.67
2018-03-22T10:26:47.075Z,1012.66
2018-03-22T10:27:46.956Z,1012.71
2018-03-22T10:28:46.981Z,1012.64
2018-03-22T10:29:46.886Z,1012.70
2018-03-22T10:30:46.896Z,1012.61
2018-03-22T10:31:46.829Z,1012.63
2018-03-22T10:32:46.911Z,1012.62
2018-03-22T10:33:46.772Z,1012.55
2018-03-22T10:34:46.820Z,1012.59
2018-03-22T10:35:46.719Z,1012.55
2018-03-22T10:36:46.727Z,1012.58
2018-03-22T10:37:46.658Z,1012.56
2018-03-22T10:38:46.740Z,1012.59
2018-03-22T10:39:46.605Z,1012.55
2018-03-22T10:40:46.647Z,1012.53
2018-03-22T10:41:46.546Z,1012.49
2018-03-22T10:42:46.561Z,1012.51
2018-03-22T10:43:46.492Z,1012.50
2018-03-22T10:44:46.571Z,1012.35
2018-03-22T10:45:46.439Z,1012.42
2018-03-22T10:46:46.483Z,1012.40
2018-03-22T10:47:46.376Z,1012.35
2018-03-22T10:48:46.393Z,1012.41
2018-03-22T10:49:46.323Z,1012.37
2018-03-22T10:50:46.464Z,1012.42
2018-03-22T10:51:46.267Z,1012.38
2018-03-22T10:52:46.371Z,1012.31
2018-03-22T10:53:46.213Z,1012.34
2018-03-22T10:54:46.281Z,1012.32
2018-03-22T10:55:46.165Z,1012.27
2018-03-22T10:56:46.299Z,1012.28
2018-03-22T10:57:46.102Z,1012.31
2018-03-22T10:58:46.207Z,1012.27
2018-03-22T10:59:46.043Z,1012.25
2018-03-22T11:00:46.119Z,1012.21
2018-03-22T11:01:45.990Z,1012.17
2018-03-22T11:02:46.073Z,1012.19
2018-03-22T11:03:45.935Z,1012.18
2018-03-22T11:04:45.979Z,1012.25
2018-03-22T11:05:45.875Z,1012.20
2018-03-22T11:06:45.891Z,1012.20
2018-03-22T11:07:45.820Z,1012.20
2018-03-22T11:08:45.902Z,1012.17
2018-03-22T11:09:45.766Z,1012.14
2018-03-22T11:10:45.813Z,1012.10
2018-03-22T11:11:45.712Z,1012.16
2018-03-22T11:12:45.722Z,1012.17
2018-03-22T11:13:45.654Z,1012.10
2018-03-22T11:14:45.736Z,1012.16
2018-03-22T11:15:45.595Z,1012.25
2018-03-22T11:16:45.654Z,1012.16
2018-03-22T11:17:45.544Z,1012.21
2018-03-22T11:18:45.555Z,1012.19
2018-03-22T11:19:45.513Z,1012.13
2018-03-22T11:20:45.572Z,1012.10
2018-03-22T11:21:45.431Z,1012.15
2018-03-22T11:24:36.069Z,1012.10
2018-03-22T11:25:17.134Z,1012.15
2018-03-22T11:27:10.011Z,1012.09
2018-03-22T11:28:09.910Z,1012.07
2018-03-22T11:30:02.855Z,1012.03
2018-03-22T11:31:02.760Z,1012.03
2018-03-22T11:32:55.709Z,1011.97
2018-03-22T11:33:55.610Z,1011.96
2018-03-22T11:35:48.557Z,1011.94
2018-03-22T11:36:48.460Z,1011.93
2018-03-22T11:38:41.405Z,1011.90
2018-03-22T11:39:41.316Z,1011.90
2018-03-22T11:41:34.258Z,1011.83
2018-03-22T11:42:34.170Z,1011.80
2018-03-22T11:44:27.105Z,1011.76
2018-03-22T11:45:27.010Z,1011.75
2018-03-22T11:47:19.960Z,1011.70
2018-03-22T11:48:19.887Z,1011.70
2018-03-22T11:50:12.809Z,1011.72
2018-03-22T11:51:12.718Z,1011.66
2018-03-22T11:53:05.663Z,1011.65
2018-03-22T11:54:05.568Z,1011.67
2018-03-22T11:55:58.512Z,1011.61
2018-03-22T11:56:58.414Z,1011.63
2018-03-22T11:58:51.363Z,1011.58
2018-03-22T11:59:51.267Z,1011.57
2018-03-22T12:01:44.216Z,1011.60
2018-03-22T12:02:44.113Z,1011.59
2018-03-22T12:04:37.066Z,1011.57
2018-03-22T12:05:36.967Z,1011.53
2018-03-22T12:07:29.914Z,1011.60
2018-03-22T12:08:29.817Z,1011.50
2018-03-22T12:10:22.764Z,1011.46
2018-03-22T12:11:22.699Z,1011.49
2018-03-22T12:13:15.617Z,1011.53
2018-03-22T12:14:15.519Z,1011.47
2018-03-22T12:16:08.467Z,1011.50
2018-03-22T12:17:08.372Z,1011.45
2018-03-22T12:19:01.317Z,1011.48
2018-03-22T12:20:01.228Z,1011.45
2018-03-22T12:21:54.172Z,1011.45
2018-03-22T12:22:54.069Z,1011.56
2018-03-22T12:24:47.017Z,1011.51